Windcrest, Texas
Current Conditions -  °F | °C
As of 5:03 PM on Thursday 18 Dec 2014 (Local Time) from KRND Reporting Station
Broken Clouds Broken Clouds  
Wind Chill: 63°   Ceiling: 1100
Heat Index: 63°   Visibility: 10mi
Dew Point: 57°   Wind: 10mph
Humidity: 82%   Direction: 40°NE
Pressure: 30.03"   Gusts: NA
Location:  29.5172°N, 98.362°W
Report Text: KRND 182303Z AUTO 04009KT 10SM BKN011 17/14 A3003 RMK AO2 BKN V FEW
Loading
Personal Weather Stations






























Interactive Weather Map New forecast layout! Learn more

10-Day Weather Forecast

Advertisements
Track Severe Weather on mobile